Kenyon, Minnesota
Current Conditions -  °F | °C
As of 6:14 PM on Wednesday 26 Nov 2014 (Local Time) from KSYN Reporting Station
Overcast Overcast  
Wind Chill: -10°   Ceiling: 4000
Heat Index: -4°   Visibility: 10mi
Dew Point: -8°   Wind: 10mph
Humidity: 76%   Direction: 330°NNW
Pressure: 30.26"   Gusts: NA
Location:  44.27°N, 92.99°W
Report Text: KSYN 270014Z AUTO 33009KT 10SM OVC040 M04/M08 A3026 RMK AO2 T10401077
Loading
Personal Weather Stations






























Interactive Weather Map New forecast layout! Learn more

10-Day Weather Forecast

Advertisements
Track Severe Weather on mobile